Image
Image
Image
Image
Image
Image
Image
Image
Image
Image
Image
Image
Image
City Time Now High Low DP Feels RH% Vsby Pressure Ceiling Direction Speed Gust Precip
Algona
VFR
7:55PM 19° 28° 19° 19° 14° 100
%
5
mi
1018.6
mb
None SSW 3
mph
0.00"
KAXA 060155Z AUTO 21003KT 5SM BR CLR M07/M07 A3008 RMK A01
Ankeny
VFR
7:55PM 28° 41° 28° 27° 28° 93
%
9
mi
1020.3
mb
None None Calm 0.00"
KIKV 060155Z AUTO 00000KT 9SM CLR M02/M03 A3013 RMK AO2
Atlantic
VFR
7:55PM 32° 45° 28° 32° 27° 100
%
10
mi
1018.6
mb
None NE 5
mph
0.00"
KAIO 060155Z AUTO 04004KT 10SM CLR M00/M00 A3008 RMK AO2
Audubon
VFR
7:55PM 28° 41° 27° 25° 28° 86
%
10
mi
1019.0
mb
7500
ft
None Calm 0.00"
KADU 060155Z AUTO 00000KT 10SM SCT048 SCT065 BKN075 M02/M04 A3009 RMK AO2
Ames
VFR
7:53PM 26° 37° 24° 23° 26° 88
%
8
mi
1020.0
mb
None None Calm 0.00"
KAMW 060153Z AUTO 00000KT 8SM CLR M03/M05 A3012 RMK AO2 SLP207 T10331050
Boone
VFR
7:55PM 25° 36° 25° 25° 25° 100
%
8
mi
1020.0
mb
None None Calm 0.00"
KBNW 060155Z AUTO 00000KT 8SM CLR M04/M04 A3012 RMK AO2
Burlington
VFR
7:53PM 33° 48° 33° 28° 28° 81
%
10
mi
1020.3
mb
None NNW 6
mph
0.00"
KBRL 060153Z AUTO 34005KT 10SM CLR 01/M02 A3013 RMK AO2 SLP209 T00061022 $
Carroll
VFR
7:55PM 27° 37° 27° 27° 27° 100
%
9
mi
1018.6
mb
None None Calm 0.00"
KCIN 060155Z AUTO 00000KT 9SM CLR M03/M03 A3008 RMK AO2
Cedar Rapids
VFR
7:52PM 27° 37° 24° 24° 22° 89
%
9
mi
1020.0
mb
None NNW 5
mph
0.00"
KCID 060152Z 34004KT 9SM CLR M03/M04 A3012 RMK AO2 SLP210 T10281044
Chariton
VFR
7:55PM 34° 46° 30° 30° 29° 86
%
10
mi
1019.3
mb
None NE 6
mph
0.00"
KCNC 060155Z AUTO 05005KT 10SM CLR 01/M01 A3010 RMK AO2
Charles City
VFR
7:55PM 19° 30° 19° 19° 13° 100
%
7
mi
1020.0
mb
None W 5
mph
0.00"
KCCY 060155Z AUTO 28004KT 7SM CLR M07/M07 A3012 RMK AO2
Clarinda
VFR
7:55PM 30° 55° 23° 28° 30° 93
%
10
mi
1019.0
mb
None None Calm 0.00"
KICL 060155Z AUTO 00000KT 10SM CLR M01/M02 A3009 RMK AO2
Clarion
MVFR
7:55PM 18° 28° 18° 18° 11° 100
%
4
mi
1019.3
mb
None E 5
mph
0.00"
KCAV 060155Z AUTO 10004KT 4SM BR CLR M08/M08 A3010 RMK A01
Clinton
VFR
7:56PM 27° 37° 27° 24° 20° 89
%
10
mi
1020.3
mb
None NW 6
mph
0.00"
KCWI 060156Z AUTO 32005KT 10SM CLR M03/M04 A3013 RMK AO2 SLP215 T10281044 FZRANO
Council Bluffs
VFR
7:55PM 37° 48° 28° 30° 32° 75
%
10
mi
1017.3
mb
None E 7
mph
0.00"
KCBF 060155Z AUTO 09006KT 10SM CLR 03/M01 A3004 RMK AO2
Creston
VFR
7:55PM 32° 46° 27° 32° 25° 100
%
10
mi
1018.6
mb
None ENE 8
mph
0.00"
KCSQ 060155Z AUTO 07007KT 10SM CLR 00/00 A3008 RMK AO2
Centerville
VFR
7:55PM 34° 50° 30° 30° 34° 86
%
10
mi
1020.3
mb
None None Calm 0.00"
KTVK 060155Z AUTO 00000KT 10SM CLR 01/M01 A3013 RMK AO2
Cherokee
VFR
7:55PM 24° 35° 23° 24° 24° 100
%
10
mi
1018.6
mb
None None Calm 0.00"
KCKP 060155Z AUTO 00000KT 10SM CLR M04/M04 A3008 RMK AO2 T10451045
Decorah
VFR
7:55PM 23° 32° 21° 21° 23° 93
%
10
mi
1019.0
mb
None None Calm 0.00"
KDEH 060155Z AUTO 00000KT 10SM CLR M05/M06 A3009 RMK AO2
Dubuque
VFR
7:53PM 25° 37° 24° 21° 25° 85
%
10
mi
1019.6
mb
None None Calm 0.00"
❄️
KDBQ 060153Z 00000KT 10SM CLR M04/M06 A3011 RMK AO2 SLP211 T10391061
Des Moines
VFR
7:54PM 32° 42° 28° 27° 32° 82
%
10
mi
1020.0
mb
None None Calm 0.00"
❄️
KDSM 060154Z 00000KT 10SM FEW250 00/M03 A3012 RMK AO2 SLP208 T00001028 $
Estherville
VFR
7:52PM 18° 30° 18° 16° 18° 92
%
10
mi
1018.6
mb
None None Calm 0.00"
KEST 060152Z AUTO 00000KT 10SM CLR M08/M09 A3008 RMK AO2 SLP204 T10781089
Fairfield
VFR
7:55PM 30° 45° 30° 28° 25° 93
%
10
mi
1020.3
mb
None N 5
mph
0.00"
KFFL 060155Z AUTO 01004KT 10SM CLR M01/M02 A3013 RMK A01
Fort Dodge
VFR
7:56PM 21° 32° 21° 18° 16° 88
%
9
mi
1019.3
mb
None ESE 3
mph
0.00"
KFOD 060156Z AUTO 11003KT 9SM CLR M06/M08 A3010 RMK AO2 SLP226 T10611078 FZRANO
Fort Madison 7:55PM 34° 50° 34° 30° 31° 86
%
10
mi
1020.3
mb
N 3
mph
0.00"
KFSW 060155Z AUTO 01003KT 10SM 01/M01 A3013 RMK AO2
Forest City
VFR
7:55PM 14° 28° 14° 12° 14° 92
%
5
mi
1019.3
mb
None None Calm 0.00"
KFXY 060155Z AUTO 00000KT 5SM BR CLR M10/M11 A3010 RMK AO2
Grinnell
VFR
7:55PM 30° 38° 30° 28° 30° 93
%
10
mi
1020.3
mb
None None Calm 0.00"
KGGI 060155Z AUTO 00000KT 10SM CLR M01/M02 A3013 RMK AO2 T10101020
Harlan
VFR
7:55PM 30° 43° 28° 30° 30° 100
%
10
mi
1018.6
mb
None None Calm 0.00"
KHNR 060155Z AUTO 00000KT 10SM CLR M01/M01 A3008 RMK A01
Hampton
VFR
7:55PM 16° 32° 16° 12° 16° 85
%
10
mi
1019.6
mb
None None Calm 0.00"
KHPT 060155Z AUTO 00000KT 10SM CLR M09/M11 A3011 RMK AO2
Iowa City
VFR
7:52PM 31° 43° 26° 26° 24° 82
%
10
mi
1021.0
mb
None NNW 7
mph
0.00"
KIOW 060152Z AUTO 33006KT 10SM CLR M01/M03 A3015 RMK AO2 SLP219 T10061033
Iowa Falls
VFR
7:55PM 21° 33° 21° 19° 21° 95
%
7
mi
1020.0
mb
None None Calm 0.00"
KIFA 060155Z AUTO 00000KT 7SM CLR M06/M07 A3012 RMK AO2 T10631070
Keokuk
VFR
7:55PM 37° 52° 30° 32° 37° 81
%
10
mi
1020.3
mb
None None Calm 0.00"
KEOK 060155Z AUTO 00000KT 10SM FEW042 FEW049 03/00 A3013 RMK A01
Knoxville
VFR
7:55PM 34° 46° 30° 28° 34° 80
%
10
mi
1020.0
mb
None None Calm 0.00"
KOXV 060155Z AUTO 00000KT 10SM CLR 01/M02 A3012 RMK AO2
Lamoni
VFR
7:53PM 36° 53° 29° 29° 30° 75
%
10
mi
1019.0
mb
None NE 7
mph
0.00"
KLWD 060153Z AUTO 05006KT 10SM CLR 02/M02 A3009 RMK AO2 SLP199 T00221017
Le Mars
VFR
7:55PM 18° 32° 18° 19° 5
mi
1017.6
mb
None NNE 5
mph
0.00"
KLRJ 060155Z AUTO 02004KT 5SM BR CLR M08/M07 A3005 RMK AO2
Marshalltown
VFR
7:53PM 25° 34° 22° 21° 19° 85
%
10
mi
1020.0
mb
None NNE 5
mph
0.00"
KMIW 060153Z AUTO 02004KT 10SM CLR M04/M06 A3012 RMK AO2 SLP212 T10391061
Monticello
VFR
7:55PM 23° 37° 23° 21° 18° 93
%
10
mi
1020.3
mb
None W 3
mph
0.00"
KMXO 060155Z AUTO 26003KT 10SM CLR M05/M06 A3013 RMK AO2
Mount Pleasant
VFR
7:55PM 32° 46° 32° 32° 26° 100
%
10
mi
1020.7
mb
None N 7
mph
0.00"
KMPZ 060155Z AUTO 36006KT 10SM CLR 00/00 A3014 RMK AO2
Muscatine
VFR
7:55PM 32° 46° 32° 30° 26° 93
%
10
mi
1021.0
mb
None N 6
mph
0.00"
KMUT 060155Z AUTO 35005KT 10SM CLR 00/M01 A3015 RMK AO2
Newton
VFR
7:55PM 30° 37° 28° 30° 23° 100
%
10
mi
1020.0
mb
None NE 7
mph
0.00"
KTNU 060155Z AUTO 04006KT 10SM CLR M01/M01 A3012 RMK A01
Oelwein
VFR
7:55PM 19° 30° 16° 19° 11° 100
%
9
mi
1020.0
mb
None W 6
mph
0.00"
KOLZ 060155Z AUTO 28005KT 9SM CLR M07/M07 A3012 RMK A01
Ottumwa
VFR
7:53PM 30° 47° 29° 27° 25° 88
%
10
mi
1020.0
mb
None NNE 5
mph
0.00"
KOTM 060153Z AUTO 02004KT 10SM CLR M01/M03 A3012 RMK AO2 SLP209 T10111028
Osceola
VFR
7:55PM 35° 48° 31° 31° 30° 87
%
10
mi
1019.3
mb
None NE 5
mph
0.00"
KI75 060155Z AUTO 05004KT 10SM CLR 01/00 A3010 RMK AO2 T00141005
Oskaloosa
VFR
7:55PM 33° 46° 30° 33° 27° 100
%
10
mi
1020.3
mb
None NE 7
mph
0.00"
KOOA 060155Z AUTO 04006KT 10SM CLR 01/01 A3013 RMK AO2 T00050005
Pella
VFR
7:55PM 30° 42° 30° 27° 30° 87
%
10
mi
1020.3
mb
None None Calm 0.00"
KPEA 060155Z AUTO 00000KT 10SM CLR M01/M03 A3013 RMK AO2 T10091027
Perry
VFR
7:55PM 29° 37° 26° 26° 29° 89
%
10
mi
1019.6
mb
None None Calm 0.00"
KPRO 060155Z AUTO 00000KT 10SM CLR M01/M03 A3011 RMK AO2 T10151031
Quad Cities
VFR
7:52PM 31° 42° 31° 26° 24° 82
%
10
mi
1020.7
mb
None NW 7
mph
0.00"
❄️
KDVN 060152Z AUTO 32006KT 10SM CLR M01/M03 A3014 RMK AO2 SLP212 T10061033
Red Oak
VFR
7:55PM 34° 52° 23° 30° 29° 86
%
10
mi
1018.3
mb
None NNE 6
mph
0.00"
KRDK 060155Z AUTO 03005KT 10SM FEW200 FEW310 01/M01 A3007 RMK AO2
Sheldon
LIFR
7:55PM 14° 30° 14° 14° 14° 100
%
¼
mi
1017.3
mb
100
ft
None Calm 0.00"
KSHL 060155Z AUTO 00000KT M1/4SM FZFG OVC001 M10/M10 A3004 RMK AO2
Shenandoah
VFR
7:55PM 34° 55° 25° 28° 28° 80
%
10
mi
1017.9
mb
None NE 7
mph
0.00"
KSDA 060155Z AUTO 04006KT 10SM CLR 01/M02 A3006 RMK AO2
Sioux City
VFR
7:52PM 26° 41° 16° 24° 21° 92
%
10
mi
1017.9
mb
None ESE 5
mph
0.00"
❄️
KSUX 060152Z 12004KT 10SM CLR M03/M04 A3006 RMK AO2 SLP195 T10331044
Spencer
LIFR
8:07PM 15° 32° 14° 15° 76
%
¼
mi
1018.6
mb
200
ft
None Calm 0.00"
KSPW 060207Z AUTO 00000KT 1/4SM HZ VV002 M09/M13 A3008 RMK AO2 T10941128
Sioux County
VFR
7:55PM 19° 30° 19° 19° 10° 100
%
5
mi
1017.6
mb
None ESE 7
mph
0.00"
KSXK 060155Z AUTO 12006KT 5SM BR FEW047 M07/M07 A3005 RMK AO2
Storm Lake
VFR
7:55PM 25° 32° 23° 25° 18° 100
%
10
mi
1018.3
mb
None SSE 6
mph
0.00"
KSLB 060155Z AUTO 15005KT 10SM CLR M04/M04 A3007 RMK AO2
Vinton
VFR
7:55PM 26° 37° 23° 23° 26° 87
%
10
mi
1020.3
mb
None None Calm 0.00"
KVTI 060155Z AUTO 00000KT 10SM CLR M03/M05 A3013 RMK AO2 T10351053
Washington
VFR
7:55PM 30° 45° 30° 30° 24° 100
%
10
mi
1020.0
mb
None NNW 6
mph
0.00"
KAWG 060155Z AUTO 34005KT 10SM CLR M01/M01 A3012 RMK AO2
Waterloo
VFR
7:54PM 23° 34° 14° 17° 23° 78
%
9
mi
1020.3
mb
None None Calm 0.00"
❄️
KALO 060154Z AUTO 00000KT 9SM CLR M05/M08 A3013 RMK AO2 SLP214 T10501083 $
Webster City
VFR
7:55PM 25° 32° 21° 25° 25° 100
%
7
mi
1019.0
mb
None None Calm 0.00"
KEBS 060155Z AUTO 00000KT 7SM CLR M04/M04 A3009 RMK AO2
Click here to show this page without METARs included